Time;durP1;ratioP1;P1;durP2;ratioP2;P2;SDS_P1;SDS_P2;PMS_P1;PMS_P2;Temp;Humidity;BMP_temperature;BMP_pressure;BME280_temperature;BME280_humidity;BME280_pressure;Samples;Min_cycle;Max_cycle;Signal;HPM_P1;HPM_P2
2021/05/20 00:01:04;;;;;;;6.97;6.28;;;14.30;65.20;;;;;;1491630;39;20071;-55
2021/05/20 00:02:25;;;;;;;6.72;6.03;;;14.30;65.30;;;;;;1489878;39;20434;-55
2021/05/20 00:03:46;;;;;;;7.05;6.25;;;14.30;65.30;;;;;;1491607;39;20326;-56
2021/05/20 00:05:08;;;;;;;7.25;6.55;;;14.30;65.30;;;;;;1492747;39;20385;-53
2021/05/20 00:06:29;;;;;;;7.30;6.38;;;14.30;65.20;;;;;;1492765;39;20040;-56
2021/05/20 00:07:50;;;;;;;6.20;5.70;;;14.30;65.10;;;;;;1486050;39;20193;-55
2021/05/20 00:09:11;;;;;;;6.70;6.10;;;14.30;65.20;;;;;;1490753;39;20031;-55
2021/05/20 00:10:32;;;;;;;6.65;6.05;;;14.30;65.10;;;;;;1490532;39;20261;-53
2021/05/20 00:11:53;;;;;;;6.68;6.07;;;14.20;65.10;;;;;;1488723;39;20125;-55
2021/05/20 00:13:14;;;;;;;6.43;5.82;;;14.30;65.20;;;;;;1492410;39;20028;-54
2021/05/20 00:14:35;;;;;;;6.63;6.03;;;14.20;65.10;;;;;;1490883;39;20276;-53
2021/05/20 00:15:56;;;;;;;6.53;5.85;;;14.30;65.20;;;;;;1492004;39;20121;-54
2021/05/20 00:17:17;;;;;;;6.93;6.22;;;14.20;65.10;;;;;;1490772;39;20024;-57
2021/05/20 00:18:38;;;;;;;6.30;5.80;;;14.30;65.30;;;;;;1490266;39;20031;-52
2021/05/20 00:19:59;;;;;;;6.85;6.20;;;14.20;65.30;;;;;;1492380;39;20028;-55
2021/05/20 00:21:20;;;;;;;6.85;5.93;;;14.30;65.40;;;;;;1483850;39;20080;-54
2021/05/20 00:22:41;;;;;;;7.18;6.35;;;14.30;65.40;;;;;;1489270;39;20035;-54
2021/05/20 00:24:02;;;;;;;7.30;6.60;;;14.30;65.40;;;;;;1490085;39;20116;-54
2021/05/20 00:25:23;;;;;;;6.90;6.07;;;14.20;65.40;;;;;;1490677;39;20445;-54
2021/05/20 00:26:44;;;;;;;6.15;5.55;;;14.30;65.40;;;;;;1491530;39;20038;-55
2021/05/20 00:28:05;;;;;;;6.50;5.90;;;14.30;65.50;;;;;;1492523;39;20112;-56
2021/05/20 00:29:26;;;;;;;6.57;5.97;;;14.30;65.40;;;;;;1492678;39;20054;-56
2021/05/20 00:30:47;;;;;;;7.10;6.40;;;14.30;65.50;;;;;;1491181;39;20027;-54
2021/05/20 00:32:08;;;;;;;6.82;6.10;;;14.20;65.40;;;;;;1491015;39;20053;-55
2021/05/20 00:33:28;;;;;;;7.55;6.75;;;14.30;65.40;;;;;;1488190;39;20071;-55
2021/05/20 00:34:49;;;;;;;6.75;6.15;;;14.20;65.30;;;;;;1488932;39;20043;-54
2021/05/20 00:36:13;;;;;;;7.22;6.55;;;14.30;65.50;;;;;;1489431;39;20024;-54
2021/05/20 00:37:35;;;;;;;7.30;6.60;;;14.20;65.40;;;;;;1490108;39;20062;-56
2021/05/20 00:38:57;;;;;;;6.97;6.13;;;14.20;65.40;;;;;;1488801;39;20025;-54
2021/05/20 00:40:18;;;;;;;7.18;6.53;;;14.20;65.40;;;;;;1488233;39;20024;-53
2021/05/20 00:41:39;;;;;;;6.78;6.20;;;14.30;65.40;;;;;;1491128;39;20040;-55
2021/05/20 00:43:00;;;;;;;7.03;6.30;;;14.20;65.40;;;;;;1490199;39;20042;-54
2021/05/20 00:44:21;;;;;;;7.82;7.07;;;14.20;65.30;;;;;;1488664;39;20074;-54
2021/05/20 00:45:42;;;;;;;8.15;7.25;;;14.20;65.40;;;;;;1492024;39;20019;-55
2021/05/20 00:47:03;;;;;;;7.22;6.55;;;14.20;65.40;;;;;;1490244;39;20030;-55
2021/05/20 00:48:23;;;;;;;7.45;6.85;;;14.20;65.40;;;;;;1489900;39;20028;-57
2021/05/20 00:49:45;;;;;;;7.65;6.85;;;14.20;65.50;;;;;;1490667;39;20051;-54
2021/05/20 00:51:05;;;;;;;7.45;6.75;;;14.20;65.50;;;;;;1493117;39;20031;-55
2021/05/20 00:52:26;;;;;;;7.65;6.95;;;14.20;65.60;;;;;;1490369;39;20043;-53
2021/05/20 00:53:49;;;;;;;7.40;6.70;;;14.20;65.60;;;;;;1492296;39;20399;-55
2021/05/20 00:55:10;;;;;;;7.43;6.80;;;14.20;65.60;;;;;;1490807;39;20257;-53
2021/05/20 00:56:33;;;;;;;7.18;6.53;;;14.20;65.60;;;;;;1492501;39;20019;-53
2021/05/20 00:57:54;;;;;;;7.18;6.47;;;14.20;65.60;;;;;;1488750;39;20242;-53
2021/05/20 00:59:15;;;;;;;7.32;6.63;;;14.20;65.50;;;;;;1491392;39;20032;-54
2021/05/20 01:00:37;;;;;;;7.10;6.40;;;14.20;65.50;;;;;;1490008;39;20114;-56
2021/05/20 01:01:59;;;;;;;7.82;6.40;;;14.20;65.40;;;;;;1490258;39;20401;-56
2021/05/20 01:03:21;;;;;;;7.00;6.32;;;14.20;65.40;;;;;;1490024;39;20043;-54
2021/05/20 01:04:42;;;;;;;7.05;6.35;;;14.20;65.30;;;;;;1490577;39;20028;-55
2021/05/20 01:06:03;;;;;;;7.00;6.07;;;14.10;65.30;;;;;;1492502;39;20104;-53
2021/05/20 01:07:24;;;;;;;6.80;6.20;;;14.10;65.30;;;;;;1489005;39;20435;-56
2021/05/20 01:08:45;;;;;;;7.03;6.40;;;14.10;65.40;;;;;;1491150;39;20042;-52
2021/05/20 01:10:07;;;;;;;6.93;6.22;;;14.10;65.40;;;;;;1489548;39;20041;-55
2021/05/20 01:11:28;;;;;;;7.72;7.03;;;14.10;65.40;;;;;;1490912;39;20028;-54
2021/05/20 01:12:49;;;;;;;7.70;6.90;;;14.10;65.40;;;;;;1489933;39;20043;-56
2021/05/20 01:14:11;;;;;;;7.43;6.72;;;14.10;65.30;;;;;;1490954;39;20027;-54
2021/05/20 01:15:32;;;;;;;7.18;6.55;;;14.10;65.30;;;;;;1490422;39;20028;-54
2021/05/20 01:16:53;;;;;;;6.97;6.28;;;14.10;65.30;;;;;;1490121;39;20064;-55
2021/05/20 01:18:14;;;;;;;6.93;6.32;;;14.10;65.30;;;;;;1489893;39;20109;-54
2021/05/20 01:19:41;;;;;;;6.53;5.97;;;14.10;65.30;;;;;;1489584;39;20032;-53
2021/05/20 01:21:01;;;;;;;6.85;6.25;;;14.10;65.30;;;;;;1492673;39;20027;-56
2021/05/20 01:22:23;;;;;;;7.30;6.60;;;14.10;65.30;;;;;;1490366;39;20043;-54
2021/05/20 01:23:43;;;;;;;8.40;7.53;;;14.10;65.30;;;;;;1492168;39;20027;-56
2021/05/20 01:25:05;;;;;;;8.52;6.85;;;14.10;65.40;;;;;;1489753;39;20036;-55
2021/05/20 01:26:28;;;;;;;7.82;7.03;;;14.00;65.30;;;;;;1488645;39;20125;-56
2021/05/20 01:27:51;;;;;;;7.57;6.85;;;14.00;65.30;;;;;;1490069;39;20039;-55
2021/05/20 01:29:12;;;;;;;7.60;6.80;;;14.00;65.30;;;;;;1491618;39;20055;-54
2021/05/20 01:30:35;;;;;;;7.00;6.30;;;14.00;65.20;;;;;;1487990;39;20147;-53
2021/05/20 01:31:57;;;;;;;6.57;5.97;;;14.00;65.20;;;;;;1490359;39;20039;-54
2021/05/20 01:33:18;;;;;;;7.45;6.75;;;14.00;65.10;;;;;;1489502;39;20392;-54
2021/05/20 01:34:39;;;;;;;7.50;6.70;;;14.00;65.10;;;;;;1491932;39;20394;-57
2021/05/20 01:36:00;;;;;;;7.47;6.78;;;14.00;65.10;;;;;;1492147;39;20040;-54
2021/05/20 01:37:21;;;;;;;7.50;6.82;;;14.00;65.20;;;;;;1489598;39;20250;-56
2021/05/20 01:38:42;;;;;;;8.15;7.35;;;14.00;65.30;;;;;;1490826;39;20031;-55
2021/05/20 01:40:03;;;;;;;7.70;6.90;;;13.90;65.30;;;;;;1491375;39;20408;-56
2021/05/20 01:41:24;;;;;;;8.73;7.82;;;13.90;65.30;;;;;;1489948;39;20042;-54
2021/05/20 01:42:45;;;;;;;7.78;7.13;;;13.90;65.30;;;;;;1492067;39;20324;-56
2021/05/20 01:44:06;;;;;;;8.32;7.50;;;13.90;65.40;;;;;;1490687;39;20033;-53
2021/05/20 01:45:27;;;;;;;7.80;7.15;;;13.90;65.60;;;;;;1485687;39;20036;-54
2021/05/20 01:46:48;;;;;;;8.00;7.30;;;13.90;65.50;;;;;;1485945;39;20036;-56
2021/05/20 01:48:09;;;;;;;9.30;7.88;;;13.90;65.50;;;;;;1489189;39;20036;-53
2021/05/20 01:49:29;;;;;;;8.18;7.43;;;13.90;65.50;;;;;;1491138;39;20040;-53
2021/05/20 01:50:51;;;;;;;8.40;7.60;;;13.90;65.50;;;;;;1491777;39;20039;-54
2021/05/20 01:52:12;;;;;;;7.82;7.05;;;13.90;65.50;;;;;;1492061;39;20019;-53
2021/05/20 01:53:34;;;;;;;8.88;7.53;;;13.90;65.50;;;;;;1491214;39;20032;-54
2021/05/20 01:54:55;;;;;;;8.52;7.72;;;13.90;65.50;;;;;;1488892;39;20046;-55
2021/05/20 01:56:21;;;;;;;9.10;8.20;;;13.90;65.40;;;;;;1487399;39;20024;-57
2021/05/20 01:57:41;;;;;;;8.93;8.02;;;13.90;65.60;;;;;;1488773;39;20027;-54
2021/05/20 01:59:04;;;;;;;9.00;8.10;;;13.90;65.40;;;;;;1490468;39;20032;-56
2021/05/20 02:00:25;;;;;;;9.50;8.40;;;13.90;65.40;;;;;;1490753;39;20024;-51
2021/05/20 02:01:46;;;;;;;9.73;8.50;;;13.90;65.40;;;;;;1489389;39;20376;-53
2021/05/20 02:03:06;;;;;;;9.27;8.38;;;13.90;65.40;;;;;;1492593;39;20026;-54
2021/05/20 02:04:27;;;;;;;9.93;8.82;;;13.80;65.30;;;;;;1489686;39;20141;-55
2021/05/20 02:05:48;;;;;;;8.88;8.00;;;13.80;65.30;;;;;;1491133;39;20027;-55
2021/05/20 02:07:09;;;;;;;9.40;8.38;;;13.80;65.30;;;;;;1491889;39;20032;-57
2021/05/20 02:08:32;;;;;;;9.55;8.57;;;13.80;65.40;;;;;;1489216;39;20120;-56
2021/05/20 02:09:53;;;;;;;9.55;8.65;;;13.80;65.40;;;;;;1489505;39;20034;-55
2021/05/20 02:11:13;;;;;;;10.18;9.10;;;13.80;65.40;;;;;;1493132;39;20016;-53
2021/05/20 02:12:34;;;;;;;9.85;8.50;;;13.80;65.40;;;;;;1491593;39;20382;-54
2021/05/20 02:13:55;;;;;;;9.77;8.85;;;13.80;65.40;;;;;;1489741;39;20042;-54
2021/05/20 02:15:16;;;;;;;10.00;8.90;;;13.70;65.30;;;;;;1492146;39;20060;-53
2021/05/20 02:16:37;;;;;;;10.88;9.77;;;13.70;65.30;;;;;;1489028;39;20055;-55
2021/05/20 02:17:58;;;;;;;10.55;9.48;;;13.70;65.40;;;;;;1490272;39;20048;-52
2021/05/20 02:19:19;;;;;;;10.70;9.32;;;13.70;65.40;;;;;;1489492;39;20040;-56
2021/05/20 02:20:40;;;;;;;11.32;10.18;;;13.70;65.30;;;;;;1490586;39;20027;-52
2021/05/20 02:22:01;;;;;;;10.73;9.63;;;13.70;65.30;;;;;;1492368;39;20027;-54
2021/05/20 02:23:22;;;;;;;10.63;9.43;;;13.70;65.30;;;;;;1490566;39;20032;-53
2021/05/20 02:24:43;;;;;;;10.20;9.10;;;13.70;65.30;;;;;;1491639;39;20263;-56
2021/05/20 02:26:04;;;;;;;10.73;9.27;;;13.70;65.40;;;;;;1493429;39;20364;-54
2021/05/20 02:27:25;;;;;;;11.70;10.50;;;13.70;65.40;;;;;;1485179;39;20028;-55
2021/05/20 02:28:46;;;;;;;12.57;10.60;;;13.70;65.40;;;;;;1492141;39;20027;-54
2021/05/20 02:30:09;;;;;;;11.52;10.32;;;13.60;65.40;;;;;;1491565;39;20040;-55
2021/05/20 02:31:30;;;;;;;11.73;9.70;;;13.70;65.50;;;;;;1488584;39;20121;-52
2021/05/20 02:32:51;;;;;;;10.80;9.68;;;13.60;66.10;;;;;;1491054;39;20039;-54
2021/05/20 02:34:12;;;;;;;11.77;9.75;;;13.60;65.40;;;;;;1492451;39;20039;-57
2021/05/20 02:35:33;;;;;;;10.90;9.73;;;13.60;65.30;;;;;;1491704;39;20024;-51
2021/05/20 02:36:54;;;;;;;11.68;10.48;;;13.60;65.30;;;;;;1488019;39;20068;-52
2021/05/20 02:38:14;;;;;;;12.00;10.50;;;13.60;65.30;;;;;;1490156;39;20051;-54
2021/05/20 02:39:35;;;;;;;13.25;11.52;;;13.60;65.40;;;;;;1489324;39;20347;-54
2021/05/20 02:40:56;;;;;;;12.30;10.75;;;13.50;65.40;;;;;;1488090;39;20050;-55
2021/05/20 02:42:17;;;;;;;13.35;11.20;;;13.50;65.40;;;;;;1490625;39;20076;-53
2021/05/20 02:43:38;;;;;;;14.13;11.55;;;13.50;65.40;;;;;;1488172;39;20032;-54
2021/05/20 02:44:59;;;;;;;12.73;10.85;;;13.50;65.40;;;;;;1490643;39;20120;-54
2021/05/20 02:46:20;;;;;;;12.75;10.90;;;13.50;65.40;;;;;;1489401;39;20028;-53
2021/05/20 02:47:45;;;;;;;13.63;10.48;;;13.50;65.40;;;;;;1491116;39;20146;-54
2021/05/20 02:49:05;;;;;;;11.75;10.48;;;13.50;65.60;;;;;;1492376;39;20032;-54
2021/05/20 02:50:26;;;;;;;12.38;10.73;;;13.50;65.50;;;;;;1490838;39;20362;-52
2021/05/20 02:51:47;;;;;;;13.13;11.18;;;13.50;65.50;;;;;;1491670;39;20047;-55
2021/05/20 02:53:08;;;;;;;11.93;10.70;;;13.50;65.50;;;;;;1490513;39;20020;-54
2021/05/20 02:54:29;;;;;;;12.30;10.85;;;13.50;65.60;;;;;;1492180;39;20043;-55
2021/05/20 02:55:50;;;;;;;12.25;10.95;;;13.40;65.60;;;;;;1490527;39;20047;-54
2021/05/20 02:57:11;;;;;;;12.20;10.88;;;13.40;65.70;;;;;;1492572;39;20071;-54
2021/05/20 02:58:32;;;;;;;14.20;11.32;;;13.40;65.70;;;;;;1485931;39;20042;-54
2021/05/20 02:59:54;;;;;;;12.88;10.82;;;13.40;65.70;;;;;;1490519;39;20036;-55
2021/05/20 03:01:14;;;;;;;13.70;11.82;;;13.40;65.70;;;;;;1490644;39;20032;-53
2021/05/20 03:02:36;;;;;;;14.15;11.40;;;13.40;65.70;;;;;;1490696;39;20454;-53
2021/05/20 03:03:57;;;;;;;13.18;11.18;;;13.40;65.60;;;;;;1492252;39;20043;-52
2021/05/20 03:05:18;;;;;;;12.80;11.13;;;13.40;65.60;;;;;;1492164;39;20038;-54
2021/05/20 03:06:39;;;;;;;14.38;11.57;;;13.40;65.70;;;;;;1489172;39;20357;-53
2021/05/20 03:08:00;;;;;;;13.10;11.60;;;13.40;65.80;;;;;;1490526;39;20046;-53
2021/05/20 03:09:21;;;;;;;13.82;11.18;;;13.40;65.80;;;;;;1488666;39;20040;-55
2021/05/20 03:10:42;;;;;;;15.82;13.18;;;13.40;65.90;;;;;;1493738;39;20268;-55
2021/05/20 03:12:03;;;;;;;22.75;13.40;;;13.40;65.90;;;;;;1492514;39;20262;-52
2021/05/20 03:13:24;;;;;;;34.45;14.07;;;13.40;65.90;;;;;;1488046;39;20309;-53
2021/05/20 03:14:45;;;;;;;20.85;13.00;;;13.40;65.90;;;;;;1490996;39;20040;-51
2021/05/20 03:16:06;;;;;;;20.75;13.88;;;13.40;65.80;;;;;;1490179;39;20027;-57
2021/05/20 03:17:27;;;;;;;36.17;13.80;;;13.40;65.80;;;;;;1489638;39;20060;-57
2021/05/20 03:18:48;;;;;;;24.90;12.50;;;13.40;65.80;;;;;;1491492;39;20371;-56
2021/05/20 03:20:09;;;;;;;29.17;13.02;;;13.40;65.70;;;;;;1491726;39;20028;-55
2021/05/20 03:21:30;;;;;;;22.33;12.52;;;13.40;65.70;;;;;;1491912;39;20024;-56
2021/05/20 03:22:51;;;;;;;18.67;13.52;;;13.30;65.70;;;;;;1491092;39;20028;-56
2021/05/20 03:24:12;;;;;;;30.27;13.57;;;13.30;65.70;;;;;;1491348;39;20023;-54
2021/05/20 03:25:36;;;;;;;40.28;14.85;;;13.40;65.80;;;;;;1491497;39;20073;-54
2021/05/20 03:26:57;;;;;;;33.35;14.18;;;13.30;65.80;;;;;;1491117;39;20361;-55
2021/05/20 03:28:18;;;;;;;22.17;15.15;;;13.30;65.90;;;;;;1490504;39;20031;-55
2021/05/20 03:29:39;;;;;;;20.70;14.60;;;13.30;66.00;;;;;;1491215;39;20361;-53
2021/05/20 03:31:00;;;;;;;24.90;15.25;;;13.30;66.10;;;;;;1490614;39;20035;-54
2021/05/20 03:32:21;;;;;;;25.98;15.50;;;13.30;66.20;;;;;;1490249;39;20466;-54
2021/05/20 03:33:43;;;;;;;30.42;15.07;;;13.30;66.30;;;;;;1491149;39;20043;-52
2021/05/20 03:35:05;;;;;;;42.05;16.92;;;13.30;66.40;;;;;;1492533;39;20333;-55
2021/05/20 03:36:26;;;;;;;30.73;16.65;;;13.30;66.40;;;;;;1488772;39;20036;-55
2021/05/20 03:37:47;;;;;;;23.90;16.05;;;13.30;66.50;;;;;;1491076;39;20040;-51
2021/05/20 03:39:08;;;;;;;26.80;16.92;;;13.30;66.60;;;;;;1490132;39;20036;-54
2021/05/20 03:40:28;;;;;;;39.55;17.58;;;13.30;67.40;;;;;;1490591;39;20047;-55
2021/05/20 03:41:49;;;;;;;36.83;17.77;;;13.30;66.70;;;;;;1491906;39;20092;-56
2021/05/20 03:43:10;;;;;;;36.13;17.42;;;13.20;66.60;;;;;;1491531;39;20020;-54
2021/05/20 03:44:31;;;;;;;22.15;17.52;;;13.20;66.70;;;;;;1490652;39;20199;-55
2021/05/20 03:45:52;;;;;;;26.60;18.10;;;13.20;66.80;;;;;;1491568;39;20274;-56
2021/05/20 03:47:13;;;;;;;28.67;17.85;;;13.20;66.90;;;;;;1491514;39;20020;-56
2021/05/20 03:48:34;;;;;;;34.50;18.90;;;13.20;66.90;;;;;;1490038;39;20133;-53
2021/05/20 03:49:55;;;;;;;32.60;18.70;;;13.30;67.10;;;;;;1491613;39;20125;-55
2021/05/20 03:51:16;;;;;;;25.58;18.02;;;13.20;67.00;;;;;;1490296;39;20079;-55
2021/05/20 03:52:37;;;;;;;39.80;19.95;;;13.20;67.00;;;;;;1488661;39;20113;-55
2021/05/20 03:53:57;;;;;;;39.90;19.27;;;13.30;67.10;;;;;;1492550;39;20028;-55
2021/05/20 03:55:18;;;;;;;39.22;18.98;;;13.20;67.10;;;;;;1490455;39;20020;-54
2021/05/20 03:56:39;;;;;;;34.20;21.00;;;13.20;67.00;;;;;;1491503;39;20532;-54
2021/05/20 03:58:00;;;;;;;27.88;19.73;;;13.20;67.00;;;;;;1491342;39;20075;-54
2021/05/20 03:59:21;;;;;;;34.55;20.92;;;13.20;66.90;;;;;;1488564;39;20044;-52
2021/05/20 04:00:42;;;;;;;31.30;19.23;;;13.20;67.00;;;;;;1493227;39;20066;-56
2021/05/20 04:02:03;;;;;;;37.63;20.90;;;13.20;67.00;;;;;;1492374;39;20059;-55
2021/05/20 04:03:28;;;;;;;38.45;22.40;;;13.20;67.10;;;;;;1489064;39;20044;-54
2021/05/20 04:04:49;;;;;;;34.08;21.33;;;13.20;67.10;;;;;;1491476;39;20027;-55
2021/05/20 04:06:10;;;;;;;33.97;22.95;;;13.20;67.20;;;;;;1491144;39;20031;-55
2021/05/20 04:07:31;;;;;;;37.85;24.25;;;13.20;67.20;;;;;;1491663;39;20080;-52
2021/05/20 04:08:52;;;;;;;43.53;24.65;;;13.20;67.30;;;;;;1491783;39;20042;-54
2021/05/20 04:10:13;;;;;;;41.08;25.83;;;13.20;67.30;;;;;;1491718;39;20192;-56
2021/05/20 04:11:34;;;;;;;46.50;25.50;;;13.20;67.30;;;;;;1490614;39;20032;-54
2021/05/20 04:12:55;;;;;;;40.92;27.38;;;13.20;67.40;;;;;;1491442;39;20035;-55
2021/05/20 04:14:16;;;;;;;46.40;26.83;;;13.20;67.50;;;;;;1490591;39;20141;-56
2021/05/20 04:15:37;;;;;;;43.83;27.83;;;13.10;67.50;;;;;;1490732;39;20116;-53
2021/05/20 04:16:58;;;;;;;46.40;29.38;;;13.20;67.70;;;;;;1492440;39;20038;-56
2021/05/20 04:18:18;;;;;;;51.47;30.05;;;13.10;67.70;;;;;;1491518;39;20024;-56
2021/05/20 04:19:39;;;;;;;45.20;29.90;;;13.10;67.80;;;;;;1489866;39;20115;-56
2021/05/20 04:21:01;;;;;;;67.25;34.38;;;13.10;67.80;;;;;;1489737;39;20266;-53
2021/05/20 04:22:22;;;;;;;49.25;30.95;;;13.20;67.90;;;;;;1489676;39;20052;-52
2021/05/20 04:23:44;;;;;;;45.40;29.27;;;13.20;67.90;;;;;;1493544;39;20025;-53
2021/05/20 04:25:06;;;;;;;50.50;29.27;;;13.20;68.00;;;;;;1492322;39;20081;-54
2021/05/20 04:26:27;;;;;;;52.55;30.42;;;13.20;68.00;;;;;;1491482;39;20445;-54
2021/05/20 04:27:48;;;;;;;50.75;29.95;;;13.20;68.00;;;;;;1491553;39;20067;-56
2021/05/20 04:29:09;;;;;;;52.88;31.83;;;13.20;67.90;;;;;;1490716;39;20027;-55
2021/05/20 04:30:30;;;;;;;52.78;31.08;;;13.20;68.10;;;;;;1491711;39;20043;-55
2021/05/20 04:31:51;;;;;;;49.00;31.88;;;13.20;68.20;;;;;;1491581;39;20035;-56
2021/05/20 04:33:12;;;;;;;53.80;32.42;;;13.20;68.20;;;;;;1483006;40;20048;-53
2021/05/20 04:34:33;;;;;;;57.75;31.85;;;13.20;68.30;;;;;;1482774;40;20465;-54
2021/05/20 04:35:54;;;;;;;55.90;32.65;;;13.20;68.30;;;;;;1483630;40;20032;-54
2021/05/20 04:37:15;;;;;;;60.80;32.58;;;13.20;68.30;;;;;;1481956;40;20035;-56
2021/05/20 04:38:36;;;;;;;58.03;33.35;;;13.20;68.20;;;;;;1482079;40;20346;-54
2021/05/20 04:39:57;;;;;;;56.47;33.30;;;13.20;68.30;;;;;;1480619;40;20036;-54
2021/05/20 04:41:18;;;;;;;68.75;36.35;;;13.20;68.30;;;;;;1483551;40;20030;-54
2021/05/20 04:42:39;;;;;;;66.95;35.22;;;13.20;68.40;;;;;;1481711;40;20021;-54
2021/05/20 04:44:00;;;;;;;51.97;31.27;;;13.20;68.20;;;;;;1481791;40;20337;-57
2021/05/20 04:45:21;;;;;;;58.08;32.30;;;13.20;68.90;;;;;;1482253;40;20023;-54
2021/05/20 04:46:42;;;;;;;54.70;31.88;;;13.20;68.30;;;;;;1484807;40;20039;-55
2021/05/20 04:48:03;;;;;;;56.97;32.55;;;13.20;68.30;;;;;;1483435;40;20025;-55
2021/05/20 04:49:24;;;;;;;53.10;30.70;;;13.20;68.40;;;;;;1480961;40;20029;-56
2021/05/20 04:50:45;;;;;;;53.42;30.73;;;13.20;68.40;;;;;;1483459;40;20068;-54
2021/05/20 04:52:06;;;;;;;52.30;30.95;;;13.20;68.30;;;;;;1482550;40;20355;-56
2021/05/20 04:53:28;;;;;;;55.50;31.45;;;13.20;68.50;;;;;;1483395;40;20133;-55
2021/05/20 04:54:49;;;;;;;53.58;30.38;;;13.20;68.60;;;;;;1483436;40;20035;-52
2021/05/20 04:56:10;;;;;;;52.88;31.27;;;13.20;68.70;;;;;;1481362;40;20040;-55
2021/05/20 04:57:31;;;;;;;59.58;31.92;;;13.20;68.80;;;;;;1482825;40;20041;-54
2021/05/20 04:58:51;;;;;;;55.85;31.73;;;13.20;68.80;;;;;;1479610;40;20119;-56
2021/05/20 05:00:13;;;;;;;59.22;31.35;;;13.20;68.70;;;;;;1482848;40;20362;-58
2021/05/20 05:01:34;;;;;;;51.20;29.55;;;13.20;68.70;;;;;;1481232;40;20170;-54
2021/05/20 05:02:55;;;;;;;49.92;29.85;;;13.20;68.60;;;;;;1481897;40;20044;-55
2021/05/20 05:04:16;;;;;;;51.00;30.33;;;13.20;68.60;;;;;;1483387;40;20078;-58
2021/05/20 05:05:37;;;;;;;55.17;32.72;;;13.20;68.70;;;;;;1481802;40;20025;-56
2021/05/20 05:06:58;;;;;;;57.15;31.15;;;13.20;68.80;;;;;;1481710;40;20021;-54
2021/05/20 05:08:18;;;;;;;51.17;30.08;;;13.30;68.80;;;;;;1483295;40;20039;-57
2021/05/20 05:09:39;;;;;;;48.38;29.45;;;13.30;68.70;;;;;;1481765;40;20038;-56
2021/05/20 05:11:00;;;;;;;50.33;29.75;;;13.30;68.70;;;;;;1483543;40;20484;-55
2021/05/20 05:12:21;;;;;;;49.80;30.13;;;13.30;68.80;;;;;;1483009;40;20035;-56
2021/05/20 05:13:42;;;;;;;46.78;27.45;;;13.30;68.90;;;;;;1482649;40;20567;-54
2021/05/20 05:15:04;;;;;;;45.20;27.30;;;13.30;69.00;;;;;;1483872;40;20026;-54
2021/05/20 05:16:25;;;;;;;45.05;25.20;;;13.30;69.10;;;;;;1482018;40;20039;-55
2021/05/20 05:17:46;;;;;;;42.28;26.67;;;13.30;69.00;;;;;;1483874;40;20032;-55
2021/05/20 05:19:07;;;;;;;42.78;25.52;;;13.30;68.90;;;;;;1482975;40;20535;-55
2021/05/20 05:20:28;;;;;;;39.40;25.05;;;13.30;68.90;;;;;;1482014;40;20336;-55
2021/05/20 05:21:49;;;;;;;37.90;23.67;;;13.30;68.90;;;;;;1481175;40;20044;-56
2021/05/20 05:23:09;;;;;;;41.03;24.50;;;13.30;68.90;;;;;;1484865;40;20029;-56
2021/05/20 05:24:31;;;;;;;41.03;23.88;;;13.30;68.90;;;;;;1481378;40;20388;-56
2021/05/20 05:25:52;;;;;;;36.97;23.90;;;13.30;68.90;;;;;;1483231;40;20472;-56
2021/05/20 05:27:14;;;;;;;38.92;23.92;;;13.30;68.90;;;;;;1482917;40;20027;-54
2021/05/20 05:28:35;;;;;;;40.78;23.95;;;13.30;68.70;;;;;;1482059;40;20069;-55
2021/05/20 05:29:56;;;;;;;37.42;22.15;;;13.30;68.60;;;;;;1483546;40;20032;-56
2021/05/20 05:31:22;;;;;;;39.92;23.63;;;13.30;68.40;;;;;;1482832;40;20029;-54
2021/05/20 05:32:42;;;;;;;35.28;21.63;;;13.30;68.40;;;;;;1487653;39;20083;-56
2021/05/20 05:34:04;;;;;;;37.00;22.10;;;13.30;68.30;;;;;;1490842;39;20053;-57
2021/05/20 05:35:25;;;;;;;37.35;21.67;;;13.30;68.30;;;;;;1489730;39;20097;-56
2021/05/20 05:36:46;;;;;;;38.83;23.33;;;13.30;68.40;;;;;;1493060;39;20031;-54
2021/05/20 05:38:07;;;;;;;38.38;23.02;;;13.30;68.40;;;;;;1492614;39;20137;-55
2021/05/20 05:39:29;;;;;;;41.33;23.42;;;13.30;68.40;;;;;;1488512;39;20266;-53
2021/05/20 05:40:49;;;;;;;38.10;22.13;;;13.30;68.60;;;;;;1491558;39;20115;-56
2021/05/20 05:42:11;;;;;;;38.83;22.00;;;13.30;68.70;;;;;;1491047;39;20035;-55
2021/05/20 05:43:31;;;;;;;39.47;21.52;;;13.30;68.90;;;;;;1490971;39;20039;-55
2021/05/20 05:44:52;;;;;;;36.75;21.17;;;13.30;68.70;;;;;;1493182;39;20030;-56
2021/05/20 05:46:13;;;;;;;41.40;22.80;;;13.30;68.70;;;;;;1492362;39;20069;-56
2021/05/20 05:47:34;;;;;;;41.85;22.98;;;13.30;68.70;;;;;;1490813;39;20028;-54
2021/05/20 05:48:58;;;;;;;42.97;23.48;;;13.30;68.70;;;;;;1490955;39;20066;-54
2021/05/20 05:50:18;;;;;;;43.22;24.02;;;13.30;68.80;;;;;;1490553;39;20345;-55
2021/05/20 05:51:43;;;;;;;44.45;23.08;;;13.30;68.80;;;;;;1492237;39;20047;-54
2021/05/20 05:53:06;;;;;;;50.00;23.95;;;13.30;68.90;;;;;;1490602;39;20035;-55
2021/05/20 05:54:27;;;;;;;50.42;26.30;;;13.30;68.90;;;;;;1490378;39;20028;-55
2021/05/20 05:55:48;;;;;;;48.38;26.10;;;13.30;69.00;;;;;;1489843;39;20035;-54
2021/05/20 05:57:09;;;;;;;44.63;24.10;;;13.40;69.00;;;;;;1489625;39;20027;-55
2021/05/20 05:58:30;;;;;;;47.10;24.58;;;13.40;69.10;;;;;;1489964;39;20046;-55
2021/05/20 05:59:51;;;;;;;41.38;23.38;;;13.40;69.00;;;;;;1490603;39;20350;-55
2021/05/20 06:01:12;;;;;;;44.50;25.10;;;13.40;69.00;;;;;;1492209;39;20028;-55
2021/05/20 06:02:34;;;;;;;44.38;24.27;;;13.40;68.90;;;;;;1489196;39;20075;-53
2021/05/20 06:03:57;;;;;;;46.00;24.30;;;13.40;68.90;;;;;;1489450;39;20040;-54
2021/05/20 06:05:18;;;;;;;44.03;23.63;;;13.40;69.00;;;;;;1490469;39;20242;-54
2021/05/20 06:06:43;;;;;;;48.17;25.75;;;13.40;69.10;;;;;;1490899;39;20047;-53
2021/05/20 06:08:05;;;;;;;47.17;24.30;;;13.40;69.30;;;;;;1488140;39;20364;-55
2021/05/20 06:09:26;;;;;;;50.63;26.98;;;13.40;69.30;;;;;;1488258;39;20394;-54
2021/05/20 06:10:47;;;;;;;45.75;26.30;;;13.40;69.40;;;;;;1491219;39;20039;-54
2021/05/20 06:12:09;;;;;;;46.17;25.70;;;13.40;69.40;;;;;;1490117;39;20032;-54
2021/05/20 06:13:29;;;;;;;45.33;25.52;;;13.40;69.30;;;;;;1489947;39;20032;-54
2021/05/20 06:14:50;;;;;;;41.22;24.63;;;13.40;69.30;;;;;;1489577;39;20066;-53
2021/05/20 06:16:11;;;;;;;44.95;25.33;;;13.40;69.30;;;;;;1491126;39;20365;-54
2021/05/20 06:17:32;;;;;;;50.28;27.63;;;13.40;69.40;;;;;;1490342;39;20044;-54
2021/05/20 06:18:53;;;;;;;43.22;25.35;;;13.40;69.40;;;;;;1488908;39;20087;-55
2021/05/20 06:20:14;;;;;;;46.03;27.25;;;13.40;69.40;;;;;;1491810;39;20027;-55
2021/05/20 06:21:35;;;;;;;49.83;28.35;;;13.50;69.50;;;;;;1489745;39;20293;-54
2021/05/20 06:22:56;;;;;;;48.60;27.42;;;13.50;69.60;;;;;;1489239;39;20140;-56
2021/05/20 06:24:17;;;;;;;47.00;28.58;;;13.50;69.70;;;;;;1490598;39;20020;-56
2021/05/20 06:25:40;;;;;;;45.53;27.45;;;13.50;69.60;;;;;;1490461;39;20020;-54
2021/05/20 06:27:01;;;;;;;50.72;28.48;;;13.50;69.60;;;;;;1489626;39;20067;-57
2021/05/20 06:28:23;;;;;;;47.53;27.25;;;13.50;69.70;;;;;;1489898;39;20047;-55
2021/05/20 06:29:44;;;;;;;43.83;27.00;;;13.50;69.60;;;;;;1489079;39;20272;-54
2021/05/20 06:31:04;;;;;;;45.03;26.83;;;13.60;69.80;;;;;;1493796;39;20023;-55
2021/05/20 06:32:27;;;;;;;52.35;28.95;;;13.60;69.90;;;;;;1490309;39;20043;-57
2021/05/20 06:33:49;;;;;;;47.20;27.85;;;13.60;69.90;;;;;;1490947;39;20043;-54
2021/05/20 06:35:10;;;;;;;50.03;28.48;;;13.60;70.00;;;;;;1488873;39;20055;-54
2021/05/20 06:36:32;;;;;;;45.25;27.63;;;13.70;70.10;;;;;;1488446;39;20016;-54
2021/05/20 06:37:53;;;;;;;47.20;28.58;;;13.70;70.10;;;;;;1490788;39;20050;-56
2021/05/20 06:39:14;;;;;;;45.78;27.73;;;13.70;70.10;;;;;;1492135;39;20040;-54
2021/05/20 06:40:35;;;;;;;49.63;29.83;;;13.70;70.00;;;;;;1492244;39;20099;-55
2021/05/20 06:41:56;;;;;;;47.83;28.42;;;13.80;70.00;;;;;;1491503;39;20035;-52
2021/05/20 06:43:17;;;;;;;51.50;31.73;;;13.80;70.00;;;;;;1489413;39;20064;-56
2021/05/20 06:44:38;;;;;;;47.40;29.85;;;13.80;70.20;;;;;;1492623;39;20036;-55
2021/05/20 06:45:58;;;;;;;43.55;28.10;;;13.80;69.90;;;;;;1493931;39;20044;-53
2021/05/20 06:47:19;;;;;;;42.08;27.98;;;13.80;69.90;;;;;;1489994;39;20032;-54
2021/05/20 06:48:40;;;;;;;43.50;29.05;;;13.90;69.90;;;;;;1490113;39;20057;-55
2021/05/20 06:50:01;;;;;;;44.25;28.42;;;13.90;69.80;;;;;;1490999;39;20035;-55
2021/05/20 06:51:22;;;;;;;44.42;28.63;;;13.90;69.70;;;;;;1489701;39;20129;-55
2021/05/20 06:52:43;;;;;;;41.00;27.05;;;13.90;69.50;;;;;;1489702;39;20031;-57
2021/05/20 06:54:04;;;;;;;43.90;27.98;;;13.90;70.20;;;;;;1491654;39;20032;-55
2021/05/20 06:55:25;;;;;;;44.85;29.05;;;14.00;69.60;;;;;;1492093;39;20046;-56